createdAt,value
2023-04-05T00:00:10.529Z,8.32
2023-04-05T00:02:40.873Z,8.63
2023-04-05T00:05:09.807Z,8.65
2023-04-05T00:07:38.441Z,8.32
2023-04-05T00:10:07.173Z,8.15
2023-04-05T00:12:35.293Z,9.63
2023-04-05T00:15:05.357Z,8.45
2023-04-05T00:17:33.555Z,8.43
2023-04-05T00:20:02.416Z,7.18
2023-04-05T00:22:35.905Z,6.30
2023-04-05T00:25:04.233Z,8.70
2023-04-05T00:27:32.239Z,9.30
2023-04-05T00:30:01.058Z,8.38
2023-04-05T00:32:32.766Z,6.80
2023-04-05T00:35:00.861Z,8.15
2023-04-05T00:37:29.155Z,6.47
2023-04-05T00:39:57.525Z,6.97
2023-04-05T00:42:25.845Z,7.47
2023-04-05T00:44:53.984Z,7.85
2023-04-05T00:47:22.114Z,10.13
2023-04-05T00:49:52.583Z,7.65
2023-04-05T00:52:23.274Z,7.18
2023-04-05T00:54:52.857Z,9.32
2023-04-05T00:57:21.547Z,8.02
2023-04-05T00:59:49.699Z,7.45
2023-04-05T01:02:24.683Z,6.32
2023-04-05T01:05:03.674Z,6.72
2023-04-05T01:07:39.423Z,6.32
2023-04-05T01:10:12.918Z,7.50
2023-04-05T01:12:41.419Z,9.07
2023-04-05T01:15:10.401Z,7.72
2023-04-05T01:17:42.297Z,5.50
2023-04-05T01:20:14.135Z,7.65
2023-04-05T01:23:10.045Z,7.88
2023-04-05T01:26:00.017Z,8.73
2023-04-05T01:28:50.896Z,8.13
2023-04-05T01:31:28.091Z,6.05
2023-04-05T01:34:03.381Z,5.85
2023-04-05T01:36:36.361Z,9.07
2023-04-05T01:39:06.834Z,9.25
2023-04-05T01:41:35.469Z,8.85
2023-04-05T01:44:03.618Z,8.38
2023-04-05T01:46:33.395Z,6.00
2023-04-05T01:49:01.735Z,8.43
2023-04-05T01:51:30.783Z,6.40
2023-04-05T01:54:01.464Z,7.40
2023-04-05T01:56:29.637Z,8.20
2023-04-05T01:58:57.918Z,7.38
2023-04-05T02:01:26.448Z,6.68
2023-04-05T02:03:56.288Z,6.65
2023-04-05T02:06:27.795Z,9.25
2023-04-05T02:08:55.868Z,5.63
2023-04-05T02:11:23.895Z,6.18
2023-04-05T02:13:52.178Z,7.10
2023-04-05T02:16:20.349Z,10.02
2023-04-05T02:18:51.170Z,7.03
2023-04-05T02:21:21.785Z,9.43
2023-04-05T02:23:50.077Z,7.15
2023-04-05T02:26:19.215Z,9.52
2023-04-05T02:28:47.397Z,9.23
2023-04-05T02:31:16.206Z,8.40
2023-04-05T02:33:44.311Z,6.00
2023-04-05T02:36:13.789Z,7.25
2023-04-05T02:38:43.192Z,7.35
2023-04-05T02:41:12.844Z,8.40
2023-04-05T02:43:41.112Z,8.48
2023-04-05T02:46:09.300Z,8.52
2023-04-05T02:48:41.504Z,9.25
2023-04-05T02:51:10.571Z,8.82
2023-04-05T02:53:40.117Z,7.70
2023-04-05T02:56:13.627Z,7.25
2023-04-05T02:58:44.792Z,10.07
2023-04-05T03:01:13.054Z,9.20
2023-04-05T03:03:41.597Z,7.75
2023-04-05T03:06:10.978Z,7.50
2023-04-05T03:08:46.317Z,10.55
2023-04-05T03:11:18.049Z,8.40
2023-04-05T03:13:51.219Z,11.90
2023-04-05T03:16:40.482Z,10.07
2023-04-05T03:19:40.985Z,7.25
2023-04-05T03:22:15.209Z,10.23
2023-04-05T03:24:43.685Z,8.02
2023-04-05T03:27:16.064Z,9.20
2023-04-05T03:29:58.120Z,9.02
2023-04-05T03:32:26.747Z,8.32
2023-04-05T03:35:05.322Z,9.50
2023-04-05T03:37:34.900Z,7.53
2023-04-05T03:40:10.833Z,8.52
2023-04-05T03:42:40.578Z,12.57
2023-04-05T03:45:09.526Z,8.00
2023-04-05T03:47:38.120Z,8.13
2023-04-05T03:50:09.825Z,11.38
2023-04-05T03:52:38.223Z,7.57
2023-04-05T03:55:07.969Z,7.85
2023-04-05T03:57:40.184Z,7.72
2023-04-05T04:00:23.935Z,8.10
2023-04-05T04:03:15.426Z,8.40
2023-04-05T04:05:47.896Z,8.10
2023-04-05T04:08:16.104Z,8.27
2023-04-05T04:10:44.144Z,7.05
2023-04-05T04:13:21.869Z,8.15
2023-04-05T04:16:01.670Z,7.55
2023-04-05T04:18:54.456Z,7.22
2023-04-05T04:21:51.967Z,7.88
2023-04-05T04:24:20.557Z,7.53
2023-04-05T04:27:10.565Z,8.27
2023-04-05T04:30:13.425Z,7.93
2023-04-05T04:32:53.567Z,6.53
2023-04-05T04:35:47.042Z,10.15
2023-04-05T04:38:35.579Z,7.80
2023-04-05T04:41:07.769Z,6.65
2023-04-05T04:43:43.596Z,7.93
2023-04-05T04:46:21.057Z,6.68
2023-04-05T04:49:05.834Z,6.65
2023-04-05T04:51:34.421Z,6.57
2023-04-05T04:54:02.973Z,7.25
2023-04-05T04:56:31.148Z,8.38
2023-04-05T04:59:00.953Z,7.03
2023-04-05T05:01:30.605Z,7.22
2023-04-05T05:03:59.695Z,8.38
2023-04-05T05:06:34.168Z,7.70
2023-04-05T05:09:02.239Z,6.85
2023-04-05T05:11:33.046Z,6.18
2023-04-05T05:14:01.883Z,7.88
2023-04-05T05:16:31.337Z,7.45
2023-04-05T05:18:59.508Z,6.85
2023-04-05T05:21:34.594Z,9.05
2023-04-05T05:24:03.636Z,6.25
2023-04-05T05:26:31.605Z,6.45
2023-04-05T05:29:02.735Z,6.55
2023-04-05T05:31:34.356Z,6.20
2023-04-05T05:34:02.678Z,7.10
2023-04-05T05:36:31.463Z,6.80
2023-04-05T05:38:59.489Z,7.15
2023-04-05T05:41:27.777Z,6.63
2023-04-05T05:43:55.855Z,8.00
2023-04-05T05:46:24.062Z,7.13
2023-04-05T05:48:53.482Z,6.57
2023-04-05T05:51:21.957Z,7.97
2023-04-05T05:53:51.220Z,5.72
2023-04-05T05:56:19.252Z,6.60
2023-04-05T05:58:48.120Z,5.93
2023-04-05T06:01:16.172Z,6.75
2023-04-05T06:03:44.683Z,6.18
2023-04-05T06:06:14.134Z,5.40
2023-04-05T06:08:42.300Z,6.75
2023-04-05T06:11:18.674Z,4.47
2023-04-05T06:13:46.872Z,8.05
2023-04-05T06:16:15.472Z,8.10
2023-04-05T06:18:43.816Z,7.65
2023-04-05T06:21:13.469Z,7.00
2023-04-05T06:23:42.051Z,5.88
2023-04-05T06:26:10.576Z,6.03
2023-04-05T06:28:38.958Z,7.28
2023-04-05T06:31:07.009Z,5.38
2023-04-05T06:33:35.483Z,5.15
2023-04-05T06:36:03.531Z,5.07
2023-04-05T06:38:33.017Z,4.32
2023-04-05T06:41:01.354Z,5.18
2023-04-05T06:43:29.354Z,5.82
2023-04-05T06:45:57.983Z,7.38
2023-04-05T06:48:28.265Z,5.65
2023-04-05T06:50:59.829Z,6.43
2023-04-05T06:53:28.531Z,7.25
2023-04-05T06:55:58.862Z,6.97
2023-04-05T06:58:28.323Z,6.50
2023-04-05T07:00:57.540Z,6.20
2023-04-05T07:03:25.687Z,5.10
2023-04-05T07:05:54.927Z,5.30
2023-04-05T07:08:24.951Z,3.85
2023-04-05T07:10:53.845Z,6.47
2023-04-05T07:13:24.369Z,4.40
2023-04-05T07:15:53.215Z,7.28
2023-04-05T07:18:22.176Z,5.50
2023-04-05T07:20:50.602Z,3.55
2023-04-05T07:23:20.386Z,5.68
2023-04-05T07:25:50.174Z,8.30
2023-04-05T07:28:18.192Z,4.57
2023-04-05T07:30:47.860Z,5.40
2023-04-05T07:33:16.383Z,5.13
2023-04-05T07:35:44.750Z,5.53
2023-04-05T07:38:12.774Z,5.03
2023-04-05T07:40:41.579Z,6.00
2023-04-05T07:43:09.776Z,5.57
2023-04-05T07:45:38.179Z,5.82
2023-04-05T07:48:07.827Z,6.88
2023-04-05T07:50:36.574Z,4.43
2023-04-05T07:53:04.707Z,4.63
2023-04-05T07:55:34.292Z,5.13
2023-04-05T07:58:02.425Z,5.97
2023-04-05T08:00:30.530Z,4.30
2023-04-05T08:03:01.687Z,5.65
2023-04-05T08:05:31.959Z,4.82
2023-04-05T08:08:00.416Z,3.30
2023-04-05T08:10:28.461Z,4.68
2023-04-05T08:12:56.654Z,4.93
2023-04-05T08:15:24.765Z,4.35
2023-04-05T08:17:52.840Z,3.55
2023-04-05T08:20:21.221Z,2.92
2023-04-05T08:22:50.641Z,4.03
2023-04-05T08:25:18.761Z,4.45
2023-04-05T08:27:47.040Z,5.03
2023-04-05T08:30:16.435Z,4.38
2023-04-05T08:32:44.854Z,4.18
2023-04-05T08:35:14.510Z,4.28
2023-04-05T08:37:42.950Z,2.05
2023-04-05T08:40:13.781Z,2.25
2023-04-05T08:42:45.977Z,2.97
2023-04-05T08:45:18.527Z,2.15
2023-04-05T08:47:48.839Z,3.50
2023-04-05T08:50:17.224Z,4.68
2023-04-05T08:52:49.766Z,3.55
2023-04-05T08:55:19.793Z,2.50
2023-04-05T08:57:54.846Z,4.15
2023-04-05T09:00:23.381Z,2.40
2023-04-05T09:02:55.978Z,3.65
2023-04-05T09:05:25.005Z,2.88
2023-04-05T09:07:53.859Z,3.30
2023-04-05T09:10:24.733Z,5.65
2023-04-05T09:12:54.191Z,4.32
2023-04-05T09:15:24.312Z,2.92
2023-04-05T09:17:53.221Z,3.83
2023-04-05T09:20:23.875Z,2.90
2023-04-05T09:22:51.949Z,3.00
2023-04-05T09:28:13.578Z,2.72
2023-04-05T09:30:47.660Z,2.63
2023-04-05T09:33:20.215Z,6.47
2023-04-05T09:35:51.667Z,2.83
2023-04-05T09:38:21.166Z,2.15
2023-04-05T09:40:51.380Z,1.88
2023-04-05T09:43:40.639Z,3.15
2023-04-05T09:46:17.217Z,1.55
2023-04-05T09:48:48.769Z,2.38
2023-04-05T09:51:17.112Z,2.45
2023-04-05T09:54:07.035Z,2.40
2023-04-05T09:56:36.311Z,2.30
2023-04-05T09:59:10.785Z,2.30
2023-04-05T10:01:41.459Z,2.35
2023-04-05T10:04:10.244Z,1.85
2023-04-05T10:06:40.035Z,4.30
2023-04-05T10:09:09.419Z,3.83
2023-04-05T10:11:39.079Z,1.85
2023-04-05T10:14:09.842Z,1.80
2023-04-05T10:16:46.475Z,3.85
2023-04-05T10:19:20.568Z,3.35
2023-04-05T10:21:50.223Z,1.70
2023-04-05T10:24:30.889Z,1.67
2023-04-05T10:27:07.159Z,1.17
2023-04-05T10:29:48.868Z,2.50
2023-04-05T10:32:28.581Z,6.93
2023-04-05T10:35:02.212Z,1.98
2023-04-05T10:37:41.507Z,1.58
2023-04-05T10:40:11.623Z,2.50
2023-04-05T10:42:44.130Z,3.38
2023-04-05T10:45:18.126Z,1.67
2023-04-05T10:47:56.312Z,1.58
2023-04-05T10:50:25.610Z,2.35
2023-04-05T10:52:54.303Z,1.85
2023-04-05T10:55:22.746Z,1.70
2023-04-05T10:57:51.878Z,1.70
2023-04-05T11:00:23.242Z,1.00
2023-04-05T11:02:57.226Z,1.70
2023-04-05T11:05:34.050Z,3.53
2023-04-05T11:08:06.212Z,1.90
2023-04-05T11:10:37.642Z,1.10
2023-04-05T11:13:08.209Z,2.35
2023-04-05T11:15:38.421Z,2.63
2023-04-05T11:18:08.923Z,1.90
2023-04-05T11:20:45.467Z,2.50
2023-04-05T11:23:15.221Z,1.35
2023-04-05T11:25:49.204Z,2.08
2023-04-05T11:28:30.437Z,1.70
2023-04-05T11:31:13.783Z,2.95
2023-04-05T11:34:10.072Z,2.10
2023-04-05T11:36:41.702Z,1.52
2023-04-05T11:39:28.807Z,2.10
2023-04-05T11:42:03.774Z,2.42
2023-04-05T11:44:44.908Z,1.08
2023-04-05T11:47:15.322Z,4.95
2023-04-05T11:49:44.956Z,3.25
2023-04-05T11:52:15.771Z,6.60
2023-04-05T11:54:47.331Z,4.53
2023-04-05T11:57:17.321Z,2.15
2023-04-05T11:59:45.766Z,1.73
2023-04-05T12:02:15.817Z,2.65
2023-04-05T12:04:43.909Z,4.00
2023-04-05T12:07:14.318Z,3.53
2023-04-05T12:10:02.969Z,2.60
2023-04-05T12:12:35.757Z,10.27
2023-04-05T12:15:04.677Z,1.67
2023-04-05T12:17:47.882Z,1.30
2023-04-05T12:22:48.436Z,4.28
2023-04-05T12:25:17.460Z,3.60
2023-04-05T12:27:46.052Z,1.58
2023-04-05T12:30:17.233Z,1.77
2023-04-05T12:32:53.589Z,1.42
2023-04-05T12:35:24.359Z,0.82
2023-04-05T12:37:52.923Z,0.80
2023-04-05T12:40:23.505Z,1.15
2023-04-05T12:42:51.819Z,1.00
2023-04-05T12:45:20.190Z,1.23
2023-04-05T12:47:54.227Z,2.22
2023-04-05T12:50:29.606Z,1.40
2023-04-05T12:52:59.084Z,1.38
2023-04-05T12:55:28.558Z,1.88
2023-04-05T12:57:59.597Z,1.65
2023-04-05T13:00:29.590Z,1.63
2023-04-05T13:03:00.656Z,1.33
2023-04-05T13:05:31.008Z,2.40
2023-04-05T13:07:59.574Z,0.98
2023-04-05T13:10:27.664Z,2.25
2023-04-05T13:12:56.022Z,1.10
2023-04-05T13:15:24.103Z,0.95
2023-04-05T13:17:53.482Z,2.03
2023-04-05T13:20:23.353Z,2.33
2023-04-05T13:22:52.115Z,2.08
2023-04-05T13:25:20.231Z,1.25
2023-04-05T13:27:48.603Z,1.10
2023-04-05T13:30:16.932Z,2.00
2023-04-05T13:32:45.735Z,2.40
2023-04-05T13:35:13.872Z,4.03
2023-04-05T13:37:43.257Z,1.45
2023-04-05T13:40:12.129Z,4.70
2023-04-05T13:42:40.206Z,2.28
2023-04-05T13:45:09.388Z,1.73
2023-04-05T13:47:37.449Z,1.30
2023-04-05T13:50:06.905Z,3.72
2023-04-05T13:52:35.304Z,3.35
2023-04-05T13:55:05.466Z,1.90
2023-04-05T13:57:33.791Z,2.13
2023-04-05T14:00:02.001Z,3.63
2023-04-05T14:02:39.997Z,2.58
2023-04-05T14:05:08.992Z,6.10
2023-04-05T14:07:37.919Z,2.58
2023-04-05T14:10:08.264Z,3.00
2023-04-05T14:12:37.318Z,3.33
2023-04-05T14:15:06.237Z,4.80
2023-04-05T14:17:34.728Z,1.85
2023-04-05T14:20:03.202Z,4.35
2023-04-05T14:22:31.461Z,2.53
2023-04-05T14:24:59.916Z,2.80
2023-04-05T14:27:29.476Z,1.10
2023-04-05T14:29:58.144Z,2.40
2023-04-05T14:32:26.612Z,1.85
2023-04-05T14:34:54.968Z,2.83
2023-04-05T14:37:23.114Z,2.17
2023-04-05T14:39:51.405Z,2.83
2023-04-05T14:42:21.508Z,2.53
2023-04-05T14:44:51.214Z,2.67
2023-04-05T14:47:19.629Z,2.30
2023-04-05T14:49:47.772Z,2.15
2023-04-05T14:52:16.148Z,4.38
2023-04-05T14:54:45.256Z,4.50
2023-04-05T14:57:13.551Z,1.35
2023-04-05T14:59:43.433Z,1.98
2023-04-05T15:02:13.268Z,2.33
2023-04-05T15:04:42.001Z,2.83
2023-04-05T15:07:10.278Z,3.35
2023-04-05T15:09:38.752Z,3.90
2023-04-05T15:12:07.986Z,1.75
2023-04-05T15:14:36.177Z,2.13
2023-04-05T15:17:04.377Z,3.88
2023-04-05T15:19:35.601Z,2.60
2023-04-05T15:22:03.867Z,3.67
2023-04-05T15:24:32.280Z,2.97
2023-04-05T15:27:02.700Z,4.82
2023-04-05T15:29:31.407Z,1.80
2023-04-05T15:31:59.568Z,2.72
2023-04-05T15:34:28.556Z,3.03
2023-04-05T15:36:58.104Z,3.22
2023-04-05T15:39:26.467Z,3.00
2023-04-05T15:44:43.147Z,2.83
2023-04-05T15:47:11.793Z,2.42
2023-04-05T15:49:40.186Z,2.95
2023-04-05T15:52:09.953Z,3.78
2023-04-05T15:54:38.551Z,2.92
2023-04-05T15:57:06.689Z,2.78
2023-04-05T15:59:35.104Z,3.38
2023-04-05T16:02:04.072Z,6.25
2023-04-05T16:04:32.209Z,3.25
2023-04-05T16:07:00.597Z,4.68
2023-04-05T16:09:30.154Z,5.20
2023-04-05T16:11:59.327Z,5.15
2023-04-05T16:14:27.737Z,3.13
2023-04-05T16:16:56.310Z,3.25
2023-04-05T16:19:24.597Z,2.22
2023-04-05T16:21:55.908Z,5.53
2023-04-05T16:24:24.116Z,1.95
2023-04-05T16:26:53.692Z,4.32
2023-04-05T16:29:21.886Z,3.33
2023-04-05T16:31:50.255Z,5.43
2023-04-05T16:34:18.699Z,3.58
2023-04-05T16:36:46.875Z,2.97
2023-04-05T16:39:15.177Z,4.30
2023-04-05T16:41:43.404Z,4.43
2023-04-05T16:44:12.997Z,3.28
2023-04-05T16:46:41.402Z,2.78
2023-04-05T16:49:09.614Z,5.07
2023-04-05T16:51:37.912Z,5.95
2023-04-05T16:54:06.161Z,5.72
2023-04-05T16:56:34.579Z,4.22
2023-04-05T16:59:05.060Z,3.53
2023-04-05T17:01:36.656Z,3.40
2023-04-05T17:04:04.916Z,4.15
2023-04-05T17:06:33.689Z,2.70
2023-04-05T17:09:02.113Z,2.20
2023-04-05T17:11:30.662Z,3.50
2023-04-05T17:13:59.426Z,3.25
2023-04-05T17:16:27.983Z,2.33
2023-04-05T17:18:57.589Z,4.30
2023-04-05T17:21:25.896Z,3.22
2023-04-05T17:23:54.346Z,2.30
2023-04-05T17:26:23.865Z,2.88
2023-04-05T17:28:52.045Z,2.60
2023-04-05T17:31:20.429Z,1.70
2023-04-05T17:33:49.461Z,2.40
2023-04-05T17:36:19.157Z,1.73
2023-04-05T17:38:47.325Z,1.50
2023-04-05T17:41:15.577Z,2.15
2023-04-05T17:43:43.709Z,2.17
2023-04-05T17:46:14.930Z,2.13
2023-04-05T17:48:43.496Z,3.75
2023-04-05T17:51:11.666Z,3.70
2023-04-05T17:53:41.323Z,3.08
2023-04-05T17:56:09.482Z,3.80
2023-04-05T17:58:37.748Z,5.35
2023-04-05T18:01:05.963Z,3.80
2023-04-05T18:03:34.342Z,7.22
2023-04-05T18:06:02.797Z,6.40
2023-04-05T18:08:30.978Z,5.03
2023-04-05T18:11:01.087Z,5.55
2023-04-05T18:13:29.688Z,4.70
2023-04-05T18:15:59.232Z,5.03
2023-04-05T18:18:28.583Z,4.85
2023-04-05T18:20:57.900Z,4.15
2023-04-05T18:23:26.124Z,3.28
2023-04-05T18:25:55.795Z,4.20
2023-04-05T18:28:25.373Z,4.55
2023-04-05T18:30:53.768Z,3.55
2023-04-05T18:33:23.106Z,4.53
2023-04-05T18:35:51.582Z,4.38
2023-04-05T18:38:19.888Z,5.82
2023-04-05T18:40:48.599Z,6.18
2023-04-05T18:43:17.029Z,6.97
2023-04-05T18:45:46.721Z,5.22
2023-04-05T18:48:15.423Z,5.40
2023-04-05T18:50:43.709Z,6.05
2023-04-05T18:53:11.838Z,6.35
2023-04-05T18:55:40.303Z,4.75
2023-04-05T18:58:08.452Z,5.95
2023-04-05T19:00:36.588Z,4.22
2023-04-05T19:03:06.270Z,5.88
2023-04-05T19:05:34.756Z,7.18
2023-04-05T19:08:03.021Z,4.60
2023-04-05T19:10:32.442Z,4.50
2023-04-05T19:13:00.609Z,5.60
2023-04-05T19:15:28.840Z,4.10
2023-04-05T19:17:58.338Z,5.47
2023-04-05T19:20:27.900Z,5.32
2023-04-05T19:22:56.029Z,4.68
2023-04-05T19:25:24.468Z,5.78
2023-04-05T19:27:52.636Z,4.30
2023-04-05T19:30:20.974Z,5.90
2023-04-05T19:32:53.742Z,8.05
2023-04-05T19:35:21.961Z,3.67
2023-04-05T19:37:51.620Z,5.55
2023-04-05T19:40:20.227Z,6.18
2023-04-05T19:42:48.356Z,5.05
2023-04-05T19:45:25.429Z,4.47
2023-04-05T19:47:54.983Z,6.15
2023-04-05T19:50:42.821Z,6.30
2023-04-05T19:53:42.522Z,7.38
2023-04-05T19:56:17.138Z,5.82
2023-04-05T19:58:46.137Z,7.35
2023-04-05T20:01:30.606Z,5.85
2023-04-05T20:03:59.016Z,7.20
2023-04-05T20:06:27.238Z,6.80
2023-04-05T20:09:03.335Z,6.03
2023-04-05T20:11:31.866Z,7.15
2023-04-05T20:14:02.109Z,8.18
2023-04-05T20:16:33.488Z,5.82
2023-04-05T20:19:04.457Z,6.32
2023-04-05T20:21:33.296Z,7.15
2023-04-05T20:24:03.250Z,7.82
2023-04-05T20:26:33.062Z,6.63
2023-04-05T20:29:02.539Z,8.50
2023-04-05T20:31:33.624Z,6.72
2023-04-05T20:34:10.625Z,9.13
2023-04-05T20:36:42.020Z,9.23
2023-04-05T20:39:11.581Z,7.25
2023-04-05T20:41:39.753Z,6.38
2023-04-05T20:44:08.164Z,5.45
2023-04-05T20:46:36.505Z,6.40
2023-04-05T20:49:04.951Z,7.70
2023-04-05T20:51:33.150Z,6.75
2023-04-05T20:54:01.457Z,6.68
2023-04-05T20:56:49.766Z,6.82
2023-04-05T20:59:18.078Z,6.82
2023-04-05T21:01:47.237Z,6.85
2023-04-05T21:04:17.755Z,6.68
2023-04-05T21:06:46.043Z,6.30
2023-04-05T21:09:14.312Z,7.20
2023-04-05T21:11:42.653Z,7.97
2023-04-05T21:14:12.202Z,8.45
2023-04-05T21:16:40.514Z,10.25
2023-04-05T21:19:09.118Z,10.23
2023-04-05T21:21:37.511Z,9.52
2023-04-05T21:24:06.620Z,9.18
2023-04-05T21:26:34.886Z,8.85
2023-04-05T21:29:03.322Z,12.13
2023-04-05T21:31:32.970Z,10.02
2023-04-05T21:34:01.313Z,8.63
2023-04-05T21:36:29.634Z,8.30
2023-04-05T21:38:57.926Z,8.02
2023-04-05T21:41:26.213Z,8.20
2023-04-05T21:43:54.597Z,11.02
2023-04-05T21:46:22.782Z,8.10
2023-04-05T21:48:52.389Z,9.88
2023-04-05T21:51:20.946Z,9.57
2023-04-05T21:53:49.040Z,8.82
2023-04-05T21:56:18.913Z,8.65
2023-04-05T21:58:47.330Z,7.93
2023-04-05T22:01:15.516Z,7.82
2023-04-05T22:03:43.924Z,8.52
2023-04-05T22:06:13.827Z,8.88
2023-04-05T22:08:41.971Z,8.88
2023-04-05T22:11:10.292Z,8.85
2023-04-05T22:13:38.440Z,8.93
2023-04-05T22:16:07.338Z,10.65
2023-04-05T22:18:35.499Z,11.45
2023-04-05T22:21:03.798Z,8.50
2023-04-05T22:23:33.543Z,11.82
2023-04-05T22:26:01.687Z,12.68
2023-04-05T22:28:30.084Z,9.55
2023-04-05T22:30:58.213Z,9.55
2023-04-05T22:33:26.414Z,9.93
2023-04-05T22:35:54.726Z,9.48
2023-04-05T22:38:22.928Z,7.90
2023-04-05T22:40:52.560Z,7.88
2023-04-05T22:43:20.875Z,8.40
2023-04-05T22:45:51.976Z,8.95
2023-04-05T22:48:21.005Z,7.57
2023-04-05T22:50:49.131Z,8.65
2023-04-05T22:53:17.368Z,7.30
2023-04-05T22:55:46.185Z,7.53
2023-04-05T22:58:16.599Z,6.57
2023-04-05T23:00:44.873Z,9.07
2023-04-05T23:03:14.703Z,8.05
2023-04-05T23:05:42.844Z,8.75
2023-04-05T23:08:11.426Z,6.75
2023-04-05T23:10:39.520Z,8.77
2023-04-05T23:13:07.755Z,9.45
2023-04-05T23:15:37.460Z,11.73
2023-04-05T23:18:05.774Z,12.18
2023-04-05T23:20:34.145Z,12.70
2023-04-05T23:23:02.594Z,8.88
2023-04-05T23:25:30.775Z,9.40
2023-04-05T23:27:59.276Z,8.40
2023-04-05T23:30:27.447Z,8.13
2023-04-05T23:32:57.094Z,8.70
2023-04-05T23:35:25.647Z,6.72
2023-04-05T23:37:53.839Z,7.50
2023-04-05T23:40:22.321Z,7.57
2023-04-05T23:42:50.464Z,9.85
2023-04-05T23:45:18.652Z,9.57
2023-04-05T23:47:47.010Z,9.63
2023-04-05T23:50:16.914Z,9.45
2023-04-05T23:52:45.720Z,10.10
2023-04-05T23:55:13.873Z,9.45
2023-04-05T23:57:42.259Z,11.25
